Brownstown Township, Michigan
Current Conditions -  °F | °C
As of 12:53 AM on Monday 22 Dec 2014 (Local Time) from KDTW Reporting Station
Haze Haze  
Wind Chill: 28°   Ceiling: Unl
Heat Index: 28°   Visibility: 5mi
Dew Point: 23°   Wind: 3mph
Humidity: 81%   Direction: 80°E
Pressure: 30.18"   Gusts: NA
Location:  42.1166°N, 83.4023°W
Report Text: KDTW 220553Z 08003KT 5SM HZ FEW180 SCT250 M02/M05 A3018 RMK AO2 SLP227 T10221050 11006 21022 58013 $
Loading
Personal Weather Stations






























Interactive Weather Map New forecast layout! Learn more

10-Day Weather Forecast

Advertisements
Track Severe Weather on mobile